Time;durP1;ratioP1;P1;durP2;ratioP2;P2;SDS_P1;SDS_P2;PMS_P1;PMS_P2;Temp;Humidity;BMP_temperature;BMP_pressure;BME280_temperature;BME280_humidity;BME280_pressure;Samples;Min_cycle;Max_cycle;Signal;HPM_P1;HPM_P2
2023/09/24 00:00:20;;;;;;;10.73;3.75;;;;;;;22.98;100.00;101874.69;5021255;28;20049;-44
2023/09/24 00:02:49;;;;;;;10.82;3.50;;;;;;;22.98;100.00;101878.28;5020547;28;20054;-45
2023/09/24 00:05:16;;;;;;;11.82;3.83;;;;;;;22.99;100.00;101877.06;5024705;28;20192;-44
2023/09/24 00:07:43;;;;;;;12.60;4.10;;;;;;;22.98;100.00;101871.84;5018328;28;20042;-47
2023/09/24 00:10:10;;;;;;;11.55;3.85;;;;;;;22.98;100.00;101877.53;5011087;28;20049;-47
2023/09/24 00:12:38;;;;;;;9.82;3.67;;;;;;;22.98;100.00;101877.53;5015185;28;20052;-44
2023/09/24 00:15:07;;;;;;;11.80;3.75;;;;;;;22.96;100.00;101882.84;5020937;28;20054;-44
2023/09/24 00:17:34;;;;;;;10.07;3.60;;;;;;;22.96;100.00;101889.34;5028120;28;20052;-44
2023/09/24 00:20:00;;;;;;;12.98;3.53;;;;;;;22.97;100.00;101893.75;5013657;28;20128;-47
2023/09/24 00:22:27;;;;;;;12.20;4.50;;;;;;;22.95;100.00;101890.56;5016621;28;20046;-45
2023/09/24 00:24:54;;;;;;;11.10;4.40;;;;;;;22.98;100.00;101895.31;5009324;28;20064;-47
2023/09/24 00:27:20;;;;;;;11.45;3.58;;;;;;;23.13;100.00;101899.06;5010844;28;20064;-48
2023/09/24 00:29:47;;;;;;;11.13;3.78;;;;;;;23.07;100.00;101900.16;5009517;28;20092;-44
2023/09/24 00:32:13;;;;;;;12.00;3.83;;;;;;;22.99;100.00;101908.25;5010484;28;20046;-47
2023/09/24 00:34:40;;;;;;;9.07;3.58;;;;;;;22.99;100.00;101898.94;5013052;28;20052;-43
2023/09/24 00:37:06;;;;;;;10.82;3.67;;;;;;;22.95;100.00;101904.72;5009240;28;20428;-43
2023/09/24 00:39:33;;;;;;;11.57;4.10;;;;;;;22.95;100.00;101907.56;5022395;28;20083;-44
2023/09/24 00:41:59;;;;;;;9.98;3.55;;;;;;;22.94;100.00;101906.00;5020961;28;20057;-45
2023/09/24 00:44:26;;;;;;;9.23;3.90;;;;;;;22.94;100.00;101905.19;5022759;28;20046;-44
2023/09/24 00:46:54;;;;;;;9.73;3.20;;;;;;;22.95;100.00;101909.63;5020898;28;20085;-47
2023/09/24 00:49:22;;;;;;;10.95;3.85;;;;;;;22.95;100.00;101910.41;5010262;28;20121;-50
2023/09/24 00:51:49;;;;;;;9.55;3.30;;;;;;;22.94;100.00;101902.38;5014422;28;20111;-44
2023/09/24 00:54:17;;;;;;;9.57;3.25;;;;;;;22.93;100.00;101906.47;5016309;28;20112;-44
2023/09/24 00:56:44;;;;;;;11.48;3.67;;;;;;;22.94;100.00;101911.69;5009107;28;20135;-44
2023/09/24 00:59:10;;;;;;;8.73;3.00;;;;;;;22.93;100.00;101900.81;5009245;28;20054;-44
2023/09/24 01:01:38;;;;;;;10.75;3.35;;;;;;;22.94;100.00;101908.84;5009602;28;20085;-43
2023/09/24 01:04:05;;;;;;;9.70;3.10;;;;;;;22.94;100.00;101908.03;5016830;28;20068;-43
2023/09/24 01:06:33;;;;;;;10.38;3.47;;;;;;;22.94;100.00;101908.84;5011629;28;20057;-43
2023/09/24 01:09:00;;;;;;;12.02;3.63;;;;;;;22.92;100.00;101910.59;5008948;28;20056;-43
2023/09/24 01:11:31;;;;;;;10.85;3.10;;;;;;;22.95;100.00;101918.13;5016004;28;20057;-43
2023/09/24 01:13:57;;;;;;;7.55;3.03;;;;;;;22.92;100.00;101916.25;5008625;28;20050;-44
2023/09/24 01:16:24;;;;;;;12.55;3.60;;;;;;;22.93;100.00;101917.81;5020126;28;20210;-44
2023/09/24 01:18:53;;;;;;;6.95;2.95;;;;;;;22.95;100.00;101909.63;5012163;28;20149;-44
2023/09/24 01:21:19;;;;;;;10.38;3.42;;;;;;;22.93;100.00;101912.16;5011308;28;20057;-45
2023/09/24 01:23:48;;;;;;;11.85;3.30;;;;;;;22.94;100.00;101917.34;5014621;28;20137;-44
2023/09/24 01:26:20;;;;;;;9.30;3.10;;;;;;;22.94;100.00;101919.38;5021128;28;20062;-44
2023/09/24 01:28:47;;;;;;;9.95;3.42;;;;;;;22.95;100.00;101915.31;5012087;28;20061;-45
2023/09/24 01:31:15;;;;;;;13.13;3.67;;;;;;;22.89;100.00;101920.84;5012898;28;20168;-44
2023/09/24 01:33:43;;;;;;;11.48;3.35;;;;;;;22.94;100.00;101930.72;5026549;28;20049;-44
2023/09/24 01:36:10;;;;;;;8.73;3.28;;;;;;;22.91;100.00;101923.19;5015267;28;20584;-41
2023/09/24 01:38:41;;;;;;;7.07;2.67;;;;;;;22.93;100.00;101932.78;5036526;28;20076;-46
2023/09/24 01:41:10;;;;;;;7.32;2.83;;;;;;;22.95;100.00;101926.66;5019104;28;20048;-44
2023/09/24 01:43:39;;;;;;;6.40;2.53;;;;;;;22.96;100.00;101933.88;5027780;28;20644;-43
2023/09/24 01:46:07;;;;;;;8.25;3.10;;;;;;;22.95;100.00;101929.47;5015162;28;20049;-44
2023/09/24 01:48:35;;;;;;;8.25;3.42;;;;;;;22.96;100.00;101929.03;5024643;28;20617;-46
2023/09/24 01:51:10;;;;;;;8.15;3.10;;;;;;;22.98;100.00;101937.84;5017779;28;20522;-46
2023/09/24 01:53:38;;;;;;;8.25;2.92;;;;;;;22.97;100.00;101935.47;5018466;28;20052;-43
2023/09/24 01:56:06;;;;;;;11.60;3.00;;;;;;;22.94;100.00;101933.56;5011180;28;20054;-46
2023/09/24 01:58:33;;;;;;;9.35;3.15;;;;;;;22.97;100.00;101944.78;5012906;28;20074;-44
2023/09/24 02:01:02;;;;;;;6.13;2.70;;;;;;;22.96;100.00;101943.22;5011834;28;20440;-45
2023/09/24 02:03:30;;;;;;;8.70;3.72;;;;;;;23.03;100.00;101944.94;5016368;28;20100;-43
2023/09/24 02:05:57;;;;;;;6.38;2.90;;;;;;;23.02;100.00;101941.31;5011878;28;20057;-43
2023/09/24 02:08:24;;;;;;;10.85;3.47;;;;;;;23.02;100.00;101937.69;5018055;28;20077;-44
2023/09/24 02:10:51;;;;;;;10.65;3.05;;;;;;;23.02;100.00;101940.53;5012151;28;20053;-45
2023/09/24 02:13:20;;;;;;;9.18;3.10;;;;;;;23.00;100.00;101928.88;5011623;28;20490;-43
2023/09/24 02:15:48;;;;;;;6.13;2.80;;;;;;;23.00;100.00;101941.00;5018683;28;20111;-47
2023/09/24 02:18:15;;;;;;;9.43;3.30;;;;;;;23.00;100.00;101934.53;5012133;28;20054;-42
2023/09/24 02:20:46;;;;;;;9.82;2.70;;;;;;;23.00;100.00;101945.88;5011881;28;20058;-44
2023/09/24 02:23:13;;;;;;;7.03;3.00;;;;;;;22.98;100.00;101943.53;5011882;28;20108;-44
2023/09/24 02:25:45;;;;;;;7.55;2.97;;;;;;;23.01;100.00;101944.63;5015735;28;20053;-45
2023/09/24 02:28:12;;;;;;;8.70;2.83;;;;;;;22.98;100.00;101945.59;5011224;28;20053;-43
2023/09/24 02:30:39;;;;;;;8.52;3.05;;;;;;;22.98;100.00;101943.53;5019811;28;20046;-43
2023/09/24 02:33:06;;;;;;;7.20;2.97;;;;;;;22.98;100.00;101945.59;5011315;28;20587;-43
2023/09/24 02:35:33;;;;;;;9.98;3.13;;;;;;;22.98;100.00;101948.41;5011075;28;20050;-44
2023/09/24 02:38:00;;;;;;;5.90;2.28;;;;;;;22.95;100.00;101950.09;5011103;28;20050;-42
2023/09/24 02:40:27;;;;;;;7.13;2.88;;;;;;;22.97;100.00;101952.50;5011434;28;20055;-43
2023/09/24 02:42:58;;;;;;;6.65;2.45;;;;;;;22.98;100.00;101954.88;5011053;28;20057;-43
2023/09/24 02:45:26;;;;;;;7.60;2.65;;;;;;;22.97;100.00;101955.34;5012131;28;20455;-45
2023/09/24 02:47:53;;;;;;;7.32;2.90;;;;;;;22.96;100.00;101954.56;5020443;28;20053;-45
2023/09/24 02:50:23;;;;;;;8.00;2.88;;;;;;;22.96;100.00;101957.41;5011958;28;20058;-44
2023/09/24 02:52:55;;;;;;;9.70;2.83;;;;;;;22.93;100.00;101955.47;5011124;28;20049;-43
2023/09/24 02:55:22;;;;;;;8.57;2.90;;;;;;;22.94;100.00;101953.41;5010567;28;20176;-45
2023/09/24 02:57:52;;;;;;;7.32;2.72;;;;;;;22.92;100.00;101947.44;5011485;28;20054;-41
2023/09/24 03:00:27;;;;;;;9.00;3.15;;;;;;;22.91;100.00;101955.16;5012771;28;20050;-44
2023/09/24 03:02:58;;;;;;;7.38;2.60;;;;;;;22.93;100.00;101961.16;5016553;28;20135;-48
2023/09/24 03:05:26;;;;;;;10.70;3.08;;;;;;;22.93;100.00;101964.00;5010247;28;20077;-43
2023/09/24 03:07:57;;;;;;;8.48;3.13;;;;;;;22.90;100.00;101969.81;5010801;28;20050;-42
2023/09/24 03:10:24;;;;;;;8.23;3.17;;;;;;;22.90;100.00;101969.81;5013390;28;20695;-46
2023/09/24 03:12:50;;;;;;;8.13;2.88;;;;;;;22.91;100.00;101974.25;5023802;28;20049;-42
2023/09/24 03:15:17;;;;;;;7.18;2.95;;;;;;;22.89;100.00;101969.03;5012918;28;20050;-46
2023/09/24 03:17:46;;;;;;;5.72;2.95;;;;;;;22.88;100.00;101970.28;5008415;28;20050;-43
2023/09/24 03:20:19;;;;;;;7.82;2.80;;;;;;;22.90;100.00;101975.47;5023311;28;20131;-44
2023/09/24 03:22:51;;;;;;;7.05;2.78;;;;;;;22.89;100.00;101969.03;5016175;28;20061;-45
2023/09/24 03:25:19;;;;;;;7.60;2.88;;;;;;;22.90;100.00;101975.47;5013521;28;20046;-43
2023/09/24 03:27:47;;;;;;;6.65;2.40;;;;;;;22.89;100.00;101973.91;5010355;28;20049;-43
2023/09/24 03:30:14;;;;;;;5.93;2.67;;;;;;;22.89;100.00;101985.25;5010276;28;20493;-46
2023/09/24 03:32:41;;;;;;;6.60;2.42;;;;;;;22.88;100.00;101995.78;5011059;28;20530;-44
2023/09/24 03:35:10;;;;;;;6.57;3.03;;;;;;;22.89;100.00;101996.59;5009988;28;20049;-45
2023/09/24 03:37:43;;;;;;;7.43;3.17;;;;;;;22.85;100.00;101995.97;5018465;28;20532;-43
2023/09/24 03:40:12;;;;;;;7.72;2.80;;;;;;;22.88;100.00;101992.19;5013759;28;20053;-43
2023/09/24 03:42:39;;;;;;;6.43;2.50;;;;;;;22.86;100.00;101994.69;5016372;28;20668;-45
2023/09/24 03:45:08;;;;;;;6.03;2.22;;;;;;;22.90;100.00;102012.34;5009742;28;20065;-43
2023/09/24 03:47:38;;;;;;;7.15;2.50;;;;;;;22.87;100.00;102004.78;5014018;28;20042;-43
2023/09/24 03:50:13;;;;;;;5.03;2.17;;;;;;;22.86;100.00;102000.38;5010209;28;20054;-45
2023/09/24 03:52:43;;;;;;;5.77;2.33;;;;;;;22.84;100.00;102011.38;5011794;28;20042;-43
2023/09/24 03:55:10;;;;;;;8.35;2.88;;;;;;;22.85;100.00;102018.66;5017738;28;20829;-42
2023/09/24 03:57:38;;;;;;;8.13;3.00;;;;;;;22.83;100.00;102016.28;5009806;28;20131;-45
2023/09/24 04:00:15;;;;;;;8.75;2.78;;;;;;;22.82;100.00;102013.91;5017875;28;20460;-43
2023/09/24 04:02:43;;;;;;;6.45;2.55;;;;;;;22.82;100.00;102017.56;5010162;28;20061;-43
2023/09/24 04:05:14;;;;;;;6.90;2.75;;;;;;;22.83;100.00;102026.84;5009912;28;20096;-43
2023/09/24 04:07:41;;;;;;;8.88;2.83;;;;;;;22.84;100.00;102028.41;5014992;28;20057;-43
2023/09/24 04:10:08;;;;;;;9.15;3.10;;;;;;;22.83;100.00;102035.34;5009249;28;20594;-44
2023/09/24 04:12:34;;;;;;;6.75;2.33;;;;;;;22.84;100.00;102034.88;5009671;28;20100;-42
2023/09/24 04:15:02;;;;;;;7.00;2.40;;;;;;;22.83;100.00;102038.19;5009360;28;20104;-43
2023/09/24 04:17:31;;;;;;;5.95;2.35;;;;;;;22.82;100.00;102031.72;5014434;28;20133;-43
2023/09/24 04:19:59;;;;;;;6.45;2.55;;;;;;;22.80;100.00;102034.25;5009437;28;20481;-43
2023/09/24 04:22:25;;;;;;;7.30;2.70;;;;;;;22.78;100.00;102035.97;5009247;28;20560;-44
2023/09/24 04:24:55;;;;;;;7.43;2.50;;;;;;;22.79;100.00;102038.34;5009556;28;20519;-43
2023/09/24 04:27:22;;;;;;;9.63;2.80;;;;;;;22.80;100.00;102039.91;5009449;28;20080;-43
2023/09/24 04:29:49;;;;;;;8.32;2.72;;;;;;;22.78;100.00;102039.59;5010291;28;20061;-44
2023/09/24 04:32:16;;;;;;;6.10;2.50;;;;;;;22.81;100.00;102046.38;5010878;28;20053;-44
2023/09/24 04:34:45;;;;;;;6.60;2.58;;;;;;;22.78;100.00;102045.25;5009336;28;20144;-43
2023/09/24 04:37:14;;;;;;;5.55;2.30;;;;;;;22.79;100.00;102049.69;5012249;28;20053;-43
2023/09/24 04:39:41;;;;;;;6.88;2.80;;;;;;;22.80;100.00;102042.75;5009276;28;20453;-44
2023/09/24 04:42:08;;;;;;;6.07;2.60;;;;;;;22.78;100.00;102042.41;5009739;28;20136;-43
2023/09/24 04:44:35;;;;;;;4.95;2.28;;;;;;;22.78;100.00;102048.09;5011598;28;20400;-43
2023/09/24 04:47:02;;;;;;;4.18;2.30;;;;;;;22.77;100.00;102055.03;5020754;28;20060;-42
2023/09/24 04:49:29;;;;;;;4.45;2.20;;;;;;;22.79;100.00;102060.22;5012922;28;20049;-43
2023/09/24 04:51:56;;;;;;;6.18;2.55;;;;;;;22.77;100.00;102063.53;5013360;28;20058;-42
2023/09/24 04:54:23;;;;;;;5.80;2.42;;;;;;;22.78;100.00;102064.34;5009936;28;20054;-45
2023/09/24 04:56:52;;;;;;;6.40;2.33;;;;;;;22.76;100.00;102066.84;5008780;28;20064;-42
2023/09/24 04:59:19;;;;;;;6.65;2.70;;;;;;;22.75;100.00;102073.78;5008567;28;20057;-45
2023/09/24 05:01:45;;;;;;;7.22;2.50;;;;;;;22.72;100.00;102069.03;5013880;28;20160;-46
2023/09/24 05:04:12;;;;;;;7.03;3.38;;;;;;;22.75;100.00;102070.94;5010776;28;20131;-43
2023/09/24 05:06:38;;;;;;;3.67;2.20;;;;;;;22.75;100.00;102079.44;5008639;28;20665;-46
2023/09/24 05:09:05;;;;;;;5.82;2.50;;;;;;;22.75;100.00;102082.28;5009003;28;20123;-44
2023/09/24 05:11:32;;;;;;;5.88;2.40;;;;;;;22.74;100.00;102077.88;5009586;28;20052;-43
2023/09/24 05:13:58;;;;;;;7.47;2.30;;;;;;;22.74;100.00;102075.03;5011587;28;20072;-43
2023/09/24 05:16:26;;;;;;;4.95;2.08;;;;;;;22.74;100.00;102092.06;5019260;28;20087;-43
2023/09/24 05:18:53;;;;;;;8.00;2.80;;;;;;;22.72;100.00;102084.00;5026219;28;20518;-43
2023/09/24 05:21:19;;;;;;;5.50;2.70;;;;;;;22.73;100.00;102076.28;5010091;28;20056;-43
2023/09/24 05:23:46;;;;;;;5.38;2.15;;;;;;;22.74;100.00;102075.81;5008703;28;20049;-42
2023/09/24 05:26:14;;;;;;;6.82;2.25;;;;;;;22.72;100.00;102084.00;5011582;28;20042;-43
2023/09/24 05:28:41;;;;;;;5.45;2.00;;;;;;;22.72;100.00;102077.53;5013571;28;20096;-43
2023/09/24 05:31:08;;;;;;;6.13;2.30;;;;;;;22.72;100.00;102084.00;5012369;28;20085;-44
2023/09/24 05:33:34;;;;;;;5.47;2.20;;;;;;;22.73;100.00;102084.78;5016447;28;20053;-42
2023/09/24 05:36:01;;;;;;;6.00;2.30;;;;;;;22.73;100.00;102091.25;5026631;28;20049;-44
2023/09/24 05:38:29;;;;;;;5.80;2.00;;;;;;;22.73;100.00;102087.63;5013389;28;20505;-43
2023/09/24 05:40:57;;;;;;;6.32;2.33;;;;;;;22.72;100.00;102095.34;5012603;28;20053;-43
2023/09/24 05:43:23;;;;;;;6.28;2.30;;;;;;;22.74;100.00;102100.56;5016523;28;20083;-44
2023/09/24 05:45:50;;;;;;;7.20;2.67;;;;;;;22.72;100.00;102100.22;5019739;28;20564;-43
2023/09/24 05:48:18;;;;;;;6.25;2.20;;;;;;;22.71;100.00;102112.81;5016601;28;20045;-43
2023/09/24 05:50:46;;;;;;;5.07;2.40;;;;;;;22.73;100.00;102113.94;5012440;28;20180;-47
2023/09/24 05:53:13;;;;;;;5.45;2.00;;;;;;;22.73;100.00;102116.78;5020304;28;20053;-43
2023/09/24 05:55:50;;;;;;;5.45;2.15;;;;;;;22.73;100.00;102107.47;5012099;28;20791;-46
2023/09/24 05:58:21;;;;;;;6.13;2.10;;;;;;;22.71;100.00;102112.81;5020173;28;20064;-43
2023/09/24 06:00:47;;;;;;;4.75;2.15;;;;;;;22.70;100.00;102131.88;5013120;28;20081;-44
2023/09/24 06:03:14;;;;;;;4.65;2.20;;;;;;;22.70;100.00;102131.88;5011923;28;20273;-44
2023/09/24 06:05:41;;;;;;;4.82;2.20;;;;;;;22.69;100.00;102133.13;5016489;28;20057;-43
2023/09/24 06:08:08;;;;;;;5.60;1.98;;;;;;;22.70;100.00;102131.06;5011802;28;20054;-45
2023/09/24 06:10:35;;;;;;;5.38;2.30;;;;;;;22.70;100.00;102136.75;5013620;28;20428;-44
2023/09/24 06:13:02;;;;;;;4.15;1.88;;;;;;;22.70;100.00;102148.09;5012139;28;20054;-42
2023/09/24 06:15:29;;;;;;;3.92;1.90;;;;;;;22.68;100.00;102137.22;5022191;28;20125;-44
2023/09/24 06:17:55;;;;;;;4.97;2.10;;;;;;;22.70;100.00;102140.38;5025081;28;20420;-46
2023/09/24 06:20:23;;;;;;;6.80;2.45;;;;;;;22.67;100.00;102141.31;5014433;28;20136;-44
2023/09/24 06:22:53;;;;;;;6.40;2.25;;;;;;;22.70;100.00;102146.03;5017007;28;20054;-43
2023/09/24 06:25:20;;;;;;;6.07;2.63;;;;;;;22.69;100.00;102149.34;5013207;28;20100;-43
2023/09/24 06:27:46;;;;;;;5.60;2.58;;;;;;;22.73;100.00;102155.66;5011404;28;20582;-43
2023/09/24 06:30:13;;;;;;;6.30;2.58;;;;;;;22.78;100.00;102155.81;5017822;28;20480;-46
2023/09/24 06:32:40;;;;;;;6.10;2.60;;;;;;;22.78;100.00;102149.38;5015871;28;20104;-46
2023/09/24 06:35:07;;;;;;;5.90;2.67;;;;;;;22.79;100.00;102148.91;5015378;28;20046;-46
2023/09/24 06:37:33;;;;;;;7.13;2.90;;;;;;;22.79;100.00;102145.28;5011509;28;20049;-45
2023/09/24 06:40:00;;;;;;;5.30;2.42;;;;;;;22.79;100.00;102162.28;5022763;28;20448;-44
2023/09/24 06:42:26;;;;;;;7.22;2.60;;;;;;;22.77;100.00;102153.47;5024945;28;20049;-44
2023/09/24 06:44:53;;;;;;;7.78;2.85;;;;;;;22.74;100.00;102160.09;5025953;28;20943;-46
2023/09/24 06:47:20;;;;;;;5.20;2.65;;;;;;;22.73;100.00;102158.50;5023147;28;20057;-45
2023/09/24 06:49:49;;;;;;;10.32;4.03;;;;;;;22.70;100.00;102159.41;5030527;28;20049;-44
2023/09/24 06:52:16;;;;;;;5.20;2.80;;;;;;;22.67;100.00;102164.00;5028215;28;20083;-45
2023/09/24 06:54:43;;;;;;;10.98;3.13;;;;;;;22.67;100.00;102168.84;5023633;28;20507;-44
2023/09/24 06:57:09;;;;;;;7.32;3.05;;;;;;;22.65;100.00;102177.06;5022057;28;20188;-46
2023/09/24 06:59:36;;;;;;;5.30;2.75;;;;;;;22.63;100.00;102182.41;5025886;28;20049;-45
2023/09/24 07:02:03;;;;;;;8.80;3.28;;;;;;;22.61;100.00;102185.69;5026958;28;20427;-43
2023/09/24 07:04:29;;;;;;;6.50;2.88;;;;;;;22.60;100.00;102183.31;5030208;28;20049;-44
2023/09/24 07:06:56;;;;;;;7.35;2.92;;;;;;;22.59;100.00;102178.91;5025896;28;20060;-45
2023/09/24 07:09:23;;;;;;;7.50;3.10;;;;;;;22.57;100.00;102172.91;5016084;28;20045;-45
2023/09/24 07:11:49;;;;;;;10.10;3.03;;;;;;;22.59;100.00;102184.59;5017501;28;20511;-44
2023/09/24 07:14:19;;;;;;;7.45;2.70;;;;;;;22.57;100.00;102193.56;5017509;28;20561;-46
2023/09/24 07:16:46;;;;;;;7.25;2.90;;;;;;;22.58;100.00;102191.53;5015509;28;20054;-46
2023/09/24 07:19:13;;;;;;;9.75;3.33;;;;;;;22.56;100.00;102185.50;5010540;28;20140;-44
2023/09/24 07:21:40;;;;;;;6.82;2.30;;;;;;;22.57;100.00;102187.88;5016310;28;20745;-42
2023/09/24 07:24:07;;;;;;;6.28;2.28;;;;;;;22.63;100.00;102186.03;5011600;28;20049;-42
2023/09/24 07:26:33;;;;;;;6.30;2.33;;;;;;;22.67;100.00;102189.50;5017009;28;20861;-43
2023/09/24 07:29:00;;;;;;;4.10;2.50;;;;;;;22.68;100.00;102190.31;5016947;28;20810;-43
2023/09/24 07:31:28;;;;;;;6.43;2.20;;;;;;;22.70;100.00;102193.44;5014838;28;20416;-42
2023/09/24 07:33:59;;;;;;;5.38;2.33;;;;;;;22.69;100.00;102192.69;5012071;28;20527;-43
2023/09/24 07:36:26;;;;;;;3.95;1.98;;;;;;;22.70;100.00;102199.13;5009614;28;20069;-42
2023/09/24 07:38:55;;;;;;;4.97;1.95;;;;;;;22.71;100.00;102195.81;5009588;28;20049;-43
2023/09/24 07:41:22;;;;;;;4.82;2.10;;;;;;;22.69;100.00;102209.69;5016110;28;20504;-42
2023/09/24 07:43:49;;;;;;;10.60;2.35;;;;;;;22.70;100.00;102205.59;5017692;28;20052;-43
2023/09/24 07:46:16;;;;;;;8.23;2.35;;;;;;;22.68;100.00;102202.41;5023105;28;20044;-42
2023/09/24 07:48:44;;;;;;;9.55;2.53;;;;;;;22.67;100.00;102212.19;5015888;28;20052;-45
2023/09/24 07:51:11;;;;;;;10.43;2.42;;;;;;;22.68;100.00;102207.31;5011782;28;20608;-43
2023/09/24 07:53:38;;;;;;;6.25;2.35;;;;;;;22.66;100.00;102210.59;5014288;28;20068;-42
2023/09/24 07:56:09;;;;;;;10.55;2.72;;;;;;;22.65;100.00;102206.22;5013555;28;20053;-42
2023/09/24 07:58:38;;;;;;;11.57;2.60;;;;;;;22.66;100.00;102198.47;5013304;28;20424;-42
2023/09/24 08:01:07;;;;;;;8.55;2.40;;;;;;;22.65;100.00;102203.38;5020910;28;20057;-43
2023/09/24 08:03:34;;;;;;;9.55;2.30;;;;;;;22.62;100.00;102203.50;5009460;28;20153;-45
2023/09/24 08:06:02;;;;;;;4.32;1.83;;;;;;;22.65;100.00;102209.03;5011507;28;20088;-42
2023/09/24 08:08:30;;;;;;;13.05;2.50;;;;;;;22.63;100.00;102199.41;5012097;28;20054;-44
2023/09/24 08:11:15;;;;;;;10.40;2.67;;;;;;;22.64;100.00;102203.84;5018000;28;20061;-45
2023/09/24 08:13:42;;;;;;;10.38;2.83;;;;;;;22.51;100.00;102205.97;5019376;28;20066;-43
2023/09/24 08:16:08;;;;;;;8.05;2.50;;;;;;;22.51;100.00;102203.91;5013329;28;20400;-43
2023/09/24 08:18:35;;;;;;;6.70;2.20;;;;;;;22.59;100.00;102199.56;5009184;28;20145;-44
2023/09/24 08:21:02;;;;;;;7.78;2.50;;;;;;;22.48;100.00;102189.91;5017283;28;20060;-43
2023/09/24 08:23:29;;;;;;;9.77;2.08;;;;;;;22.45;100.00;102207.81;5018954;28;20041;-43
2023/09/24 08:25:55;;;;;;;7.95;2.22;;;;;;;22.49;100.00;102202.81;5020517;28;20507;-43
2023/09/24 08:28:22;;;;;;;10.43;2.63;;;;;;;22.50;100.00;102210.03;5013611;28;20144;-46
2023/09/24 08:30:48;;;;;;;10.85;2.13;;;;;;;22.41;100.00;102212.84;5010512;28;20132;-43
2023/09/24 08:33:15;;;;;;;9.20;1.98;;;;;;;22.39;100.00;102213.31;5009174;28;20050;-42
2023/09/24 08:35:42;;;;;;;8.05;2.10;;;;;;;22.40;100.00;102216.91;5011377;28;20046;-42
2023/09/24 08:38:09;;;;;;;6.03;1.73;;;;;;;22.38;100.00;102216.59;5009706;28;20056;-43
2023/09/24 08:40:39;;;;;;;8.45;2.00;;;;;;;22.38;100.00;102213.78;5013109;28;20061;-41
2023/09/24 08:43:10;;;;;;;8.60;1.98;;;;;;;22.33;100.00;102209.50;5012400;28;20131;-42
2023/09/24 08:45:37;;;;;;;4.57;1.80;;;;;;;22.36;100.00;102217.06;5013582;28;20049;-42
2023/09/24 08:48:08;;;;;;;8.50;2.20;;;;;;;22.34;100.00;102215.97;5019292;28;20730;-44
2023/09/24 08:50:40;;;;;;;6.50;1.90;;;;;;;22.27;100.00;102204.88;5009359;28;20221;-42
2023/09/24 08:53:11;;;;;;;7.03;1.85;;;;;;;22.33;100.00;102211.53;5012882;28;20056;-42
2023/09/24 08:55:42;;;;;;;4.55;1.60;;;;;;;22.29;100.00;102208.81;5013068;28;20042;-42
2023/09/24 08:58:08;;;;;;;6.25;1.80;;;;;;;22.30;100.00;102212.44;5009780;28;20108;-43
2023/09/24 09:00:36;;;;;;;9.43;1.95;;;;;;;22.31;100.00;102216.88;5011615;28;20049;-42
2023/09/24 09:03:03;;;;;;;7.03;1.80;;;;;;;22.30;100.00;102216.09;5023920;28;20515;-41
2023/09/24 09:05:35;;;;;;;4.63;1.58;;;;;;;22.20;100.00;102214.41;5020485;28;20081;-43
2023/09/24 09:08:03;;;;;;;6.03;1.80;;;;;;;22.20;100.00;102210.81;5019402;28;20136;-43
2023/09/24 09:10:32;;;;;;;8.95;1.77;;;;;;;22.20;100.00;102211.59;5016293;28;20080;-42
2023/09/24 09:13:13;;;;;;;6.20;1.58;;;;;;;22.10;100.00;102209.94;5019108;28;20712;-43
2023/09/24 09:15:42;;;;;;;6.05;1.40;;;;;;;22.17;100.00;102200.41;5018338;28;20073;-41
2023/09/24 09:18:35;;;;;;;8.27;2.20;;;;;;;22.11;100.00;102200.22;5018421;28;20104;-44
2023/09/24 09:21:02;;;;;;;5.70;1.60;;;;;;;22.15;100.00;102193.13;5014833;28;20112;-43
2023/09/24 09:23:35;;;;;;;7.78;1.88;;;;;;;22.09;100.00;102185.72;5012288;28;20052;-44
2023/09/24 09:26:05;;;;;;;4.35;1.60;;;;;;;22.11;100.00;102189.66;5011645;28;20054;-44
2023/09/24 09:28:34;;;;;;;7.15;2.65;;;;;;;22.12;100.00;102196.13;5015851;28;20077;-42
2023/09/24 09:31:09;;;;;;;7.90;1.73;;;;;;;22.14;100.00;102185.09;5019570;28;20053;-43
2023/09/24 09:33:42;;;;;;;5.65;1.35;;;;;;;22.17;100.00;102190.66;5013787;28;20061;-45
2023/09/24 09:36:28;;;;;;;6.10;2.17;;;;;;;22.26;100.00;102186.28;5018432;28;20052;-43
2023/09/24 09:39:00;;;;;;;11.77;1.77;;;;;;;22.24;100.00;102188.78;5012035;28;20061;-42
2023/09/24 09:41:29;;;;;;;7.82;1.80;;;;;;;22.23;100.00;102184.38;5020352;28;20089;-42
2023/09/24 09:44:05;;;;;;;8.40;1.67;;;;;;;22.25;100.00;102190.38;5030346;28;20057;-45
2023/09/24 09:46:34;;;;;;;5.95;1.65;;;;;;;22.26;100.00;102189.91;5033703;28;20042;-42
2023/09/24 09:49:04;;;;;;;4.68;1.52;;;;;;;22.27;100.00;102185.03;5022964;28;20594;-42
2023/09/24 09:51:54;;;;;;;4.45;1.42;;;;;;;22.30;100.00;102199.09;5021755;28;20115;-42
2023/09/24 09:54:22;;;;;;;5.72;1.52;;;;;;;22.23;100.00;102178.69;5028957;28;20108;-42
2023/09/24 09:56:50;;;;;;;4.88;1.27;;;;;;;22.29;100.00;102194.66;5017180;28;20136;-44
2023/09/24 09:59:19;;;;;;;6.03;1.35;;;;;;;22.32;100.00;102185.25;5013592;28;20128;-43
2023/09/24 10:01:45;;;;;;;3.42;1.17;;;;;;;22.31;100.00;102178.00;5018133;28;20413;-44
2023/09/24 10:04:13;;;;;;;10.43;1.85;;;;;;;22.31;100.00;102172.31;5010882;28;20052;-43
2023/09/24 10:06:40;;;;;;;4.55;1.40;;;;;;;22.36;100.00;102179.44;5011065;28;20069;-42
2023/09/24 10:09:31;;;;;;;4.72;1.50;;;;;;;22.38;100.00;102157.09;5019854;28;20654;-42
2023/09/24 10:11:58;;;;;;;6.05;1.92;;;;;;;22.32;100.00;102164.63;5016310;28;20462;-42
2023/09/24 10:14:36;;;;;;;9.13;1.40;;;;;;;22.33;100.00;102169.03;5014127;28;20570;-43
2023/09/24 10:17:29;;;;;;;5.78;1.60;;;;;;;22.30;100.00;102161.44;5021311;28;20074;-42
2023/09/24 10:20:01;;;;;;;5.40;1.20;;;;;;;22.31;100.00;102149.66;5020415;28;20054;-43
2023/09/24 10:22:27;;;;;;;3.63;1.23;;;;;;;22.30;100.00;102147.28;5013045;28;20134;-45
2023/09/24 10:24:55;;;;;;;5.78;1.10;;;;;;;22.31;100.00;102151.72;5014888;28;20530;-42
2023/09/24 10:27:31;;;;;;;3.85;1.30;;;;;;;22.32;100.00;102153.28;5016883;28;20049;-43
2023/09/24 10:30:02;;;;;;;7.90;1.55;;;;;;;22.33;100.00;102140.69;5010661;28;20132;-40
2023/09/24 10:32:29;;;;;;;4.05;1.30;;;;;;;22.35;100.00;102150.31;5011014;28;20570;-44
2023/09/24 10:34:57;;;;;;;7.00;1.35;;;;;;;22.36;100.00;102153.94;5020306;28;20084;-43
2023/09/24 10:37:29;;;;;;;3.78;1.10;;;;;;;22.37;100.00;102155.53;5011461;28;20094;-42
2023/09/24 10:40:05;;;;;;;5.97;1.40;;;;;;;22.36;100.00;102146.22;5011027;28;20535;-43
2023/09/24 10:42:33;;;;;;;2.63;1.50;;;;;;;22.37;100.00;102144.19;5011161;28;20069;-42
2023/09/24 10:45:05;;;;;;;5.03;1.45;;;;;;;22.39;100.00;102145.31;5010843;28;20536;-42
2023/09/24 10:47:35;;;;;;;4.75;1.13;;;;;;;22.38;100.00;102143.75;5014158;28;20072;-43
2023/09/24 10:50:03;;;;;;;7.22;1.77;;;;;;;22.36;100.00;102148.25;5034137;28;20053;-42
2023/09/24 10:52:48;;;;;;;5.00;1.33;;;;;;;22.37;100.00;102150.63;5011441;28;20466;-44
2023/09/24 10:55:30;;;;;;;4.90;1.23;;;;;;;22.40;100.00;102143.25;5018203;28;20064;-42
2023/09/24 10:57:59;;;;;;;3.60;1.20;;;;;;;22.37;100.00;102132.88;5011055;28;20132;-43
2023/09/24 11:00:28;;;;;;;4.13;1.08;;;;;;;22.38;100.00;102131.59;5010810;28;20585;-45
2023/09/24 11:03:03;;;;;;;2.38;1.00;;;;;;;22.40;100.00;102131.91;5009418;28;20046;-43
2023/09/24 11:05:44;;;;;;;5.90;1.25;;;;;;;22.39;100.00;102119.00;5010064;28;20050;-43
2023/09/24 11:08:13;;;;;;;2.30;0.90;;;;;;;22.41;100.00;102116.50;5010266;28;20053;-42
2023/09/24 11:10:40;;;;;;;2.60;0.70;;;;;;;22.40;100.00;102112.88;5016718;28;20585;-42
2023/09/24 11:13:07;;;;;;;5.40;1.73;;;;;;;22.44;100.00;102115.56;5010491;28;20108;-46
2023/09/24 11:15:37;;;;;;;2.60;1.20;;;;;;;22.38;100.00;102115.41;5010574;28;20431;-41
2023/09/24 11:18:04;;;;;;;4.78;1.33;;;;;;;22.33;100.00;102110.31;5020404;28;20041;-42
2023/09/24 11:20:34;;;;;;;5.07;1.13;;;;;;;22.34;100.00;102111.13;5013835;28;20053;-42
2023/09/24 11:23:09;;;;;;;2.92;1.15;;;;;;;22.38;100.00;102100.44;5008225;28;20103;-42